Time;durP1;ratioP1;P1;durP2;ratioP2;P2;SDS_P1;SDS_P2;PMS_P1;PMS_P2;Temp;Humidity;BMP_temperature;BMP_pressure;BME280_temperature;BME280_humidity;BME280_pressure;Samples;Min_cycle;Max_cycle;Signal;HPM_P1;HPM_P2
2023/05/12 00:00:51;;;;;;;9.98;8.50;;;;;;;15.03;100.00;101498.50;5240613;28;20076;-71
2023/05/12 00:03:22;;;;;;;9.70;8.27;;;;;;;14.99;100.00;101497.94;5243977;28;20079;-71
2023/05/12 00:05:54;;;;;;;8.45;7.65;;;;;;;14.96;100.00;101506.16;5240436;28;20034;-71
2023/05/12 00:08:25;;;;;;;7.25;6.55;;;;;;;14.83;100.00;101498.53;5241437;28;20033;-71
2023/05/12 00:10:56;;;;;;;6.32;5.68;;;;;;;14.85;100.00;101503.69;5240771;28;20833;-71
2023/05/12 00:13:28;;;;;;;7.20;5.40;;;;;;;14.83;100.00;101500.34;5248873;28;20040;-71
2023/05/12 00:16:00;;;;;;;6.60;5.68;;;;;;;14.76;100.00;101492.16;5245813;28;20144;-71
2023/05/12 00:18:32;;;;;;;6.40;5.72;;;;;;;14.84;100.00;101507.28;5244309;28;20107;-71
2023/05/12 00:21:03;;;;;;;8.88;5.65;;;;;;;14.82;100.00;101496.06;5248699;28;20025;-71
2023/05/12 00:23:35;;;;;;;7.88;6.03;;;;;;;14.80;100.00;101498.81;5244989;28;20104;-71
2023/05/12 00:26:06;;;;;;;6.93;6.22;;;;;;;14.78;100.00;101494.69;5244399;28;20451;-71
2023/05/12 00:28:37;;;;;;;8.70;6.40;;;;;;;14.83;100.00;101493.28;5247482;28;20029;-71
2023/05/12 00:31:08;;;;;;;9.18;6.45;;;;;;;14.82;100.00;101488.97;5244477;28;20029;-71
2023/05/12 00:33:40;;;;;;;7.35;6.43;;;;;;;14.79;100.00;101493.72;5243499;28;21059;-71
2023/05/12 00:36:11;;;;;;;7.97;6.97;;;;;;;14.79;100.00;101488.44;5227455;28;20014;-71
2023/05/12 00:38:42;;;;;;;7.88;6.50;;;;;;;14.80;100.00;101488.28;5241296;28;20038;-71
2023/05/12 00:41:13;;;;;;;8.88;7.25;;;;;;;14.79;100.00;101491.91;5237602;28;20064;-71
2023/05/12 00:43:45;;;;;;;8.80;6.25;;;;;;;14.73;100.00;101491.63;5250978;28;20086;-71
2023/05/12 00:46:17;;;;;;;7.50;6.72;;;;;;;14.60;100.00;101491.94;5251871;28;20509;-71
2023/05/12 00:48:48;;;;;;;7.15;6.47;;;;;;;14.56;100.00;101491.38;5244963;28;20112;-71
2023/05/12 00:51:21;;;;;;;8.57;5.93;;;;;;;14.59;100.00;101485.00;5244262;28;20413;-71
2023/05/12 00:53:52;;;;;;;7.75;6.95;;;;;;;14.51;100.00;101488.34;5242287;28;20016;-71
2023/05/12 00:56:24;;;;;;;6.97;5.95;;;;;;;14.36;100.00;101476.53;5241185;28;20051;-71
2023/05/12 00:58:55;;;;;;;7.35;6.03;;;;;;;14.43;100.00;101482.88;5238103;28;20026;-71
2023/05/12 01:01:26;;;;;;;6.72;5.90;;;;;;;14.38;100.00;101481.63;5245556;28;20037;-71
2023/05/12 01:03:59;;;;;;;7.10;6.10;;;;;;;14.41;100.00;101478.72;5240043;28;20065;-71
2023/05/12 01:06:43;;;;;;;6.07;5.47;;;;;;;14.54;100.00;101485.38;5242020;28;20453;-71
2023/05/12 01:09:15;;;;;;;7.05;6.35;;;;;;;14.28;100.00;101485.13;5243961;28;20033;-71
2023/05/12 01:11:46;;;;;;;16.63;6.25;;;;;;;14.26;100.00;101476.50;5242292;28;20025;-71
2023/05/12 01:14:17;;;;;;;6.75;6.05;;;;;;;14.30;100.00;101475.25;5241026;28;20106;-71
2023/05/12 01:16:52;;;;;;;6.82;6.13;;;;;;;14.33;100.00;101474.97;5246028;28;20029;-71
2023/05/12 01:19:41;;;;;;;7.57;6.43;;;;;;;14.29;100.00;101472.78;5235732;28;20554;-71
2023/05/12 01:22:13;;;;;;;6.85;6.20;;;;;;;14.24;100.00;101473.16;5246114;28;20037;-71
2023/05/12 01:24:48;;;;;;;5.90;5.38;;;;;;;14.26;100.00;101473.88;5244018;28;20028;-71
2023/05/12 01:27:22;;;;;;;7.35;5.68;;;;;;;14.21;100.00;101467.38;5239830;28;20040;-71
2023/05/12 01:29:57;;;;;;;8.85;6.20;;;;;;;14.28;100.00;101466.66;5240726;28;20402;-71
2023/05/12 01:32:29;;;;;;;7.30;6.30;;;;;;;14.19;100.00;101462.22;5242394;28;20028;-71
2023/05/12 01:35:00;;;;;;;11.57;6.87;;;;;;;14.18;100.00;101462.38;5241489;28;20055;-71
2023/05/12 01:37:32;;;;;;;9.10;6.40;;;;;;;14.17;100.00;101458.91;5241940;28;20026;-71
2023/05/12 01:40:03;;;;;;;9.02;7.57;;;;;;;14.10;100.00;101455.97;5237238;28;20032;-71
2023/05/12 01:42:38;;;;;;;11.30;6.97;;;;;;;14.12;100.00;101461.09;5242248;28;20041;-71
2023/05/12 01:45:09;;;;;;;7.68;6.95;;;;;;;14.07;100.00;101456.25;5244239;28;20025;-71
2023/05/12 01:47:40;;;;;;;7.63;6.82;;;;;;;14.07;100.00;101460.69;5242426;28;20056;-71
2023/05/12 01:50:12;;;;;;;7.30;6.45;;;;;;;14.07;100.00;101456.25;5237357;28;20410;-71
2023/05/12 01:52:44;;;;;;;6.97;6.32;;;;;;;14.06;100.00;101459.84;5240706;28;20029;-71
2023/05/12 01:55:16;;;;;;;7.18;6.47;;;;;;;13.95;100.00;101462.63;5244873;28;20048;-71
2023/05/12 01:57:47;;;;;;;8.73;6.63;;;;;;;13.90;100.00;101454.28;5243351;28;20387;-71
2023/05/12 02:00:18;;;;;;;7.15;6.45;;;;;;;13.86;100.00;101460.78;5246865;28;20120;-71
2023/05/12 02:02:50;;;;;;;7.55;6.40;;;;;;;13.92;100.00;101455.00;5245042;28;20037;-71
2023/05/12 02:05:21;;;;;;;9.40;7.00;;;;;;;13.81;100.00;101452.47;5244945;28;20025;-71
2023/05/12 02:07:52;;;;;;;7.47;6.40;;;;;;;13.82;100.00;101446.22;5244606;28;20483;-71
2023/05/12 02:10:23;;;;;;;7.30;6.60;;;;;;;13.80;100.00;101445.56;5243331;28;20071;-71
2023/05/12 02:12:55;;;;;;;5.88;5.15;;;;;;;13.80;100.00;101449.00;5247817;28;20024;-71
2023/05/12 02:15:26;;;;;;;7.60;5.78;;;;;;;13.75;100.00;101448.59;5249898;28;20476;-71
2023/05/12 02:17:58;;;;;;;7.03;5.50;;;;;;;13.67;100.00;101448.41;5250895;28;20370;-71
2023/05/12 02:20:29;;;;;;;6.88;5.50;;;;;;;13.65;100.00;101439.84;5245079;28;20021;-72
2023/05/12 02:23:01;;;;;;;5.45;4.70;;;;;;;13.74;100.00;101438.19;5246875;28;20403;-71
2023/05/12 02:25:33;;;;;;;6.82;4.90;;;;;;;13.60;100.00;101424.47;5245712;28;20029;-71
2023/05/12 02:28:06;;;;;;;6.07;5.10;;;;;;;13.71;100.00;101434.00;5246176;28;20036;-71
2023/05/12 02:30:43;;;;;;;5.85;4.95;;;;;;;13.73;100.00;101437.34;5240296;28;20039;-71
2023/05/12 02:33:15;;;;;;;6.20;5.13;;;;;;;13.63;100.00;101425.97;5241239;28;20025;-71
2023/05/12 02:35:46;;;;;;;6.83;4.67;;;;;;;13.76;100.00;101431.00;5238329;28;20376;-71
2023/05/12 02:38:18;;;;;;;6.40;5.03;;;;;;;13.73;100.00;101426.00;5242186;28;20029;-71
2023/05/12 02:40:49;;;;;;;5.47;4.57;;;;;;;13.66;100.00;101420.44;5242830;28;20057;-71
2023/05/12 02:43:20;;;;;;;6.60;4.95;;;;;;;13.70;100.00;101426.25;5243563;28;20521;-70
2023/05/12 02:45:51;;;;;;;5.00;4.45;;;;;;;13.70;100.00;101426.25;5247177;28;20420;-71
2023/05/12 02:48:23;;;;;;;6.55;4.35;;;;;;;13.71;100.00;101422.66;5239589;28;20057;-71
2023/05/12 02:50:54;;;;;;;5.25;4.45;;;;;;;13.74;100.00;101414.47;5235829;28;20199;-71
2023/05/12 02:53:26;;;;;;;4.40;3.85;;;;;;;13.68;100.00;101421.13;5248129;28;20476;-71
2023/05/12 02:55:57;;;;;;;5.20;4.22;;;;;;;13.69;100.00;101411.44;5242902;28;20356;-71
2023/05/12 02:58:28;;;;;;;4.65;3.88;;;;;;;13.60;100.00;101413.09;5238318;28;20115;-71
2023/05/12 03:01:00;;;;;;;5.72;3.60;;;;;;;13.57;100.00;101406.28;5243590;28;20032;-71
2023/05/12 03:03:31;;;;;;;4.50;3.78;;;;;;;13.67;100.00;101401.03;5243242;28;20033;-72
2023/05/12 03:06:03;;;;;;;5.35;3.60;;;;;;;13.72;100.00;101409.38;5246586;28;20025;-71
2023/05/12 03:08:35;;;;;;;5.45;3.55;;;;;;;13.68;100.00;101396.63;5247886;28;20432;-72
2023/05/12 03:11:06;;;;;;;4.22;3.30;;;;;;;13.72;100.00;101409.38;5241628;28;20017;-72
2023/05/12 03:13:37;;;;;;;3.85;3.03;;;;;;;13.63;100.00;101395.19;5247910;28;20041;-72
2023/05/12 03:16:09;;;;;;;4.57;3.40;;;;;;;13.69;100.00;101398.28;5242582;28;20031;-72
2023/05/12 03:18:40;;;;;;;4.07;2.95;;;;;;;13.69;100.00;101396.47;5249840;28;20108;-71
2023/05/12 03:21:11;;;;;;;3.90;2.67;;;;;;;13.72;100.00;101398.84;5248096;28;20758;-72
2023/05/12 03:23:43;;;;;;;4.07;2.85;;;;;;;13.63;100.00;101391.72;5248917;28;20021;-71
2023/05/12 03:26:14;;;;;;;4.22;2.70;;;;;;;13.67;100.00;101393.13;5247325;28;20021;-72
2023/05/12 03:28:45;;;;;;;5.43;2.80;;;;;;;13.59;100.00;101383.28;5247606;28;20033;-72
2023/05/12 03:31:16;;;;;;;4.47;2.90;;;;;;;13.54;100.00;101382.88;5242100;28;20021;-72
2023/05/12 03:33:48;;;;;;;6.18;3.15;;;;;;;13.58;100.00;101386.88;5249226;28;20021;-72
2023/05/12 03:36:19;;;;;;;3.65;2.58;;;;;;;13.61;100.00;101381.34;5256197;28;20025;-72
2023/05/12 03:38:50;;;;;;;3.25;2.70;;;;;;;13.57;100.00;101376.50;5251833;28;20024;-71
2023/05/12 03:41:22;;;;;;;3.53;3.22;;;;;;;13.65;100.00;101381.09;5245746;28;20032;-72
2023/05/12 03:43:53;;;;;;;4.03;3.42;;;;;;;13.54;100.00;101377.59;5255640;28;20051;-71
2023/05/12 03:46:25;;;;;;;4.10;3.70;;;;;;;13.53;100.00;101369.84;5247576;28;20021;-71
2023/05/12 03:48:57;;;;;;;4.20;3.80;;;;;;;13.50;100.00;101372.75;5243102;28;20180;-71
2023/05/12 03:51:29;;;;;;;4.78;4.28;;;;;;;13.56;100.00;101366.91;5244578;28;20036;-72
2023/05/12 03:54:00;;;;;;;4.78;4.25;;;;;;;13.47;100.00;101368.56;5246432;28;20021;-71
2023/05/12 03:56:32;;;;;;;4.72;4.28;;;;;;;13.50;100.00;101372.75;5249400;28;20430;-71
2023/05/12 03:59:03;;;;;;;6.47;4.35;;;;;;;13.55;100.00;101366.09;5242712;28;20025;-71
2023/05/12 04:01:34;;;;;;;5.75;4.53;;;;;;;13.50;100.00;101380.66;5246496;28;20027;-74
2023/05/12 04:04:05;;;;;;;6.22;4.82;;;;;;;13.54;100.00;101367.06;5245731;28;20462;-71
2023/05/12 04:06:37;;;;;;;6.70;5.55;;;;;;;13.55;100.00;101368.72;5248375;28;20430;-71
2023/05/12 04:09:08;;;;;;;7.35;6.22;;;;;;;13.51;100.00;101366.50;5247270;28;20115;-72
2023/05/12 04:11:40;;;;;;;6.70;5.93;;;;;;;13.52;100.00;101362.91;5244240;28;20040;-71
2023/05/12 04:14:11;;;;;;;8.13;6.78;;;;;;;13.51;100.00;101366.50;5245822;28;20071;-71
2023/05/12 04:16:42;;;;;;;7.97;6.45;;;;;;;13.54;100.00;101363.59;5244283;28;20049;-71
2023/05/12 04:19:13;;;;;;;9.95;6.93;;;;;;;13.47;100.00;101357.22;5243950;28;20034;-72
2023/05/12 04:21:45;;;;;;;7.72;6.55;;;;;;;13.52;100.00;101362.91;5234253;28;21205;-71
2023/05/12 04:24:16;;;;;;;7.88;7.07;;;;;;;13.57;100.00;101358.91;5243575;28;20044;-71
2023/05/12 04:26:48;;;;;;;7.90;7.10;;;;;;;13.59;100.00;101362.22;5243768;28;20044;-72
2023/05/12 04:29:19;;;;;;;9.50;8.07;;;;;;;13.57;100.00;101358.06;5234155;28;20056;-71
2023/05/12 04:31:50;;;;;;;9.93;7.47;;;;;;;13.57;100.00;101358.91;5244460;28;20470;-71
2023/05/12 04:34:21;;;;;;;10.63;8.40;;;;;;;13.57;100.00;101356.28;5246853;28;20028;-71
2023/05/12 04:36:53;;;;;;;10.70;8.93;;;;;;;13.56;100.00;101348.50;5248241;28;20029;-71
2023/05/12 04:39:24;;;;;;;12.35;9.57;;;;;;;13.56;100.00;101351.13;5235761;28;20386;-71
2023/05/12 04:41:55;;;;;;;10.68;9.48;;;;;;;13.54;100.00;101355.72;5245075;28;20494;-71
2023/05/12 04:44:27;;;;;;;11.50;9.18;;;;;;;13.53;100.00;101352.25;5237977;28;20112;-71
2023/05/12 04:46:58;;;;;;;11.32;9.60;;;;;;;13.52;100.00;101352.38;5245711;28;20029;-71
2023/05/12 04:49:29;;;;;;;12.98;9.70;;;;;;;13.55;100.00;101357.38;5242315;28;20127;-71
2023/05/12 04:52:01;;;;;;;13.00;10.90;;;;;;;13.58;100.00;101365.00;5242878;28;20013;-72
2023/05/12 04:54:32;;;;;;;15.23;11.63;;;;;;;13.57;100.00;101360.72;5243435;28;20495;-71
2023/05/12 04:57:04;;;;;;;15.10;11.90;;;;;;;13.58;100.00;101365.00;5239601;28;20069;-71
2023/05/12 04:59:35;;;;;;;16.30;11.57;;;;;;;13.60;100.00;101363.91;5239372;28;20032;-71
2023/05/12 05:02:10;;;;;;;15.00;11.55;;;;;;;13.57;100.00;101369.44;5242130;28;20029;-71
2023/05/12 05:04:41;;;;;;;17.27;11.27;;;;;;;13.65;100.00;101366.13;5254644;28;20056;-71
2023/05/12 05:07:13;;;;;;;13.60;11.63;;;;;;;13.64;100.00;101367.09;5248423;28;20029;-71
2023/05/12 05:09:45;;;;;;;15.98;12.23;;;;;;;13.63;100.00;101371.50;5241794;28;20130;-71
2023/05/12 05:12:16;;;;;;;16.92;12.45;;;;;;;13.73;100.00;101379.41;5241229;28;20052;-71
2023/05/12 05:14:48;;;;;;;18.77;14.73;;;;;;;13.67;100.00;101373.88;5242582;28;20067;-71
2023/05/12 05:17:19;;;;;;;18.67;14.65;;;;;;;13.69;100.00;101377.22;5222358;28;20643;-71
2023/05/12 05:19:50;;;;;;;21.05;15.85;;;;;;;13.74;100.00;101381.06;5239702;28;20364;-71
2023/05/12 05:22:22;;;;;;;18.42;15.10;;;;;;;13.71;100.00;101368.19;5243543;28;20031;-71
2023/05/12 05:24:53;;;;;;;20.55;17.00;;;;;;;13.74;100.00;101381.06;5241749;28;20024;-71
2023/05/12 05:27:25;;;;;;;21.58;16.30;;;;;;;13.78;100.00;101384.28;5247193;28;20025;-71
2023/05/12 05:29:56;;;;;;;23.92;18.05;;;;;;;13.82;100.00;101380.38;5238680;28;20076;-72
2023/05/12 05:32:27;;;;;;;22.02;16.58;;;;;;;13.79;100.00;101388.59;5240241;28;20029;-71
2023/05/12 05:34:59;;;;;;;23.30;17.45;;;;;;;13.82;100.00;101385.66;5242989;28;20518;-71
2023/05/12 05:37:30;;;;;;;22.60;17.35;;;;;;;13.87;100.00;101394.00;5246474;28;20445;-71
2023/05/12 05:40:02;;;;;;;22.67;17.80;;;;;;;13.85;100.00;101390.66;5246382;28;20028;-71
2023/05/12 05:42:33;;;;;;;23.65;18.88;;;;;;;13.92;100.00;101396.22;5227110;28;20115;-71
2023/05/12 05:45:05;;;;;;;22.98;18.45;;;;;;;13.95;100.00;101402.03;5222602;28;20382;-71
2023/05/12 05:47:37;;;;;;;23.25;18.90;;;;;;;13.98;100.00;101393.84;5236178;28;20045;-71
2023/05/12 05:50:08;;;;;;;23.00;18.75;;;;;;;13.99;100.00;101394.69;5239147;28;20521;-71
2023/05/12 05:52:40;;;;;;;23.50;18.88;;;;;;;14.04;100.00;101401.19;5236584;28;20422;-71
2023/05/12 05:55:11;;;;;;;26.42;19.67;;;;;;;14.09;100.00;101398.13;5239931;28;20052;-71
2023/05/12 05:57:42;;;;;;;23.70;20.08;;;;;;;14.08;100.00;101405.22;5235473;28;20029;-71
2023/05/12 06:00:14;;;;;;;24.85;21.00;;;;;;;14.04;100.00;101395.91;5233625;28;20112;-71
2023/05/12 06:02:45;;;;;;;25.80;20.15;;;;;;;14.16;100.00;101414.22;5233134;28;20040;-71
2023/05/12 06:05:17;;;;;;;26.90;20.50;;;;;;;14.20;100.00;101411.16;5234206;28;20056;-71
2023/05/12 06:07:48;;;;;;;24.17;20.77;;;;;;;14.19;100.00;101421.84;5235366;28;20037;-71
2023/05/12 06:10:19;;;;;;;25.90;20.58;;;;;;;14.20;100.00;101420.88;5237196;28;20203;-71
2023/05/12 06:12:51;;;;;;;27.60;20.35;;;;;;;14.24;100.00;101409.06;5237099;28;21168;-71
2023/05/12 06:15:22;;;;;;;26.88;20.48;;;;;;;14.28;100.00;101421.88;5237929;28;20033;-71
2023/05/12 06:17:53;;;;;;;25.52;20.50;;;;;;;14.29;100.00;101436.69;5234459;28;20033;-71
2023/05/12 06:20:25;;;;;;;25.83;21.10;;;;;;;14.33;100.00;101443.34;5242642;28;20082;-71
2023/05/12 06:22:56;;;;;;;24.75;20.23;;;;;;;14.34;100.00;101439.72;5233610;28;20036;-71
2023/05/12 06:25:27;;;;;;;23.83;21.13;;;;;;;14.39;100.00;101443.75;5246560;28;20039;-71
2023/05/12 06:27:59;;;;;;;24.80;21.50;;;;;;;14.42;100.00;101446.13;5245208;28;20474;-71
2023/05/12 06:30:30;;;;;;;23.15;20.55;;;;;;;14.49;100.00;101453.34;5238396;28;20063;-72
2023/05/12 06:33:01;;;;;;;28.48;21.55;;;;;;;14.54;100.00;101445.00;5243450;28;20025;-72
2023/05/12 06:35:32;;;;;;;24.60;21.48;;;;;;;14.65;100.00;101454.56;5243747;28;20542;-72
2023/05/12 06:38:04;;;;;;;25.42;22.15;;;;;;;14.63;100.00;101433.63;5247439;28;20506;-72
2023/05/12 06:40:35;;;;;;;26.75;22.45;;;;;;;14.82;100.00;101461.78;5246559;28;20029;-72
2023/05/12 06:43:06;;;;;;;29.92;22.73;;;;;;;14.88;100.00;101457.72;5245561;28;20029;-72
2023/05/12 06:45:38;;;;;;;25.20;22.48;;;;;;;14.92;100.00;101456.44;5251652;28;20040;-72
2023/05/12 06:48:09;;;;;;;25.30;22.30;;;;;;;15.05;100.00;101463.09;5249612;28;20045;-71
2023/05/12 06:50:41;;;;;;;24.80;22.23;;;;;;;15.08;100.00;101456.69;5249318;28;20023;-71
2023/05/12 06:53:12;;;;;;;25.35;22.48;;;;;;;15.28;100.00;101473.28;5247741;28;20048;-72
2023/05/12 06:55:45;;;;;;;25.38;22.80;;;;;;;15.33;100.00;101471.84;5241492;28;20474;-72
2023/05/12 06:58:17;;;;;;;24.58;22.02;;;;;;;15.40;100.00;101474.75;5244898;28;20410;-72
2023/05/12 07:00:49;;;;;;;24.88;22.42;;;;;;;15.44;100.00;101467.38;5242446;28;20502;-72
2023/05/12 07:03:20;;;;;;;21.98;19.73;;;;;;;15.56;100.00;101474.13;5241297;28;20034;-72
2023/05/12 07:05:51;;;;;;;21.98;19.88;;;;;;;15.58;100.00;101477.44;5241951;28;20021;-72
2023/05/12 07:08:22;;;;;;;21.80;19.65;;;;;;;15.65;100.00;101483.84;5244006;28;20048;-72
2023/05/12 07:10:54;;;;;;;21.58;19.38;;;;;;;15.73;100.00;101483.09;5240028;28;20060;-72
2023/05/12 07:13:25;;;;;;;21.45;19.45;;;;;;;15.77;100.00;101484.47;5248572;28;20037;-73
2023/05/12 07:15:56;;;;;;;22.65;20.38;;;;;;;15.80;100.00;101485.00;5245881;28;20040;-72
2023/05/12 07:18:28;;;;;;;20.65;18.52;;;;;;;15.86;100.00;101501.22;5237068;28;20025;-71
2023/05/12 07:20:59;;;;;;;19.42;17.52;;;;;;;15.90;100.00;101487.56;5243561;28;20021;-72
2023/05/12 07:23:31;;;;;;;18.17;16.55;;;;;;;15.95;100.00;101492.44;5246172;28;20033;-72
2023/05/12 07:26:04;;;;;;;17.65;16.10;;;;;;;15.90;100.00;101502.59;5245051;28;20044;-72
2023/05/12 07:28:36;;;;;;;16.17;14.77;;;;;;;15.91;100.00;101493.69;5245299;28;20086;-72
2023/05/12 07:31:07;;;;;;;15.77;14.38;;;;;;;16.02;100.00;101496.97;5243804;28;20020;-72
2023/05/12 07:33:38;;;;;;;16.67;15.07;;;;;;;16.01;100.00;101502.38;5245018;28;20025;-71
2023/05/12 07:36:09;;;;;;;14.77;13.45;;;;;;;15.99;100.00;101494.63;5238635;28;20055;-70
2023/05/12 07:38:41;;;;;;;14.95;13.55;;;;;;;16.10;100.00;101483.00;5243807;28;20097;-70
2023/05/12 07:41:13;;;;;;;13.43;12.32;;;;;;;16.18;100.00;101501.56;5241044;28;20379;-71
2023/05/12 07:43:44;;;;;;;13.57;12.38;;;;;;;16.26;100.00;101498.19;5241643;28;20564;-71
2023/05/12 07:46:16;;;;;;;12.65;11.65;;;;;;;16.46;100.00;101501.50;5242309;28;20407;-71
2023/05/12 07:48:48;;;;;;;11.63;10.63;;;;;;;16.41;100.00;101498.47;5244948;28;20573;-71
2023/05/12 07:51:19;;;;;;;10.82;9.93;;;;;;;16.65;100.00;101495.19;5243526;28;20120;-71
2023/05/12 07:53:50;;;;;;;10.48;8.40;;;;;;;16.71;100.00;101508.66;5244681;28;20414;-71
2023/05/12 07:56:21;;;;;;;9.00;8.02;;;;;;;16.61;100.00;101507.06;5238548;28;20474;-71
2023/05/12 07:58:53;;;;;;;8.13;7.40;;;;;;;16.77;100.00;101508.03;5243443;28;20453;-71
2023/05/12 08:01:24;;;;;;;7.57;6.88;;;;;;;16.89;100.00;101518.38;5239138;28;20500;-71
2023/05/12 08:03:55;;;;;;;8.75;6.78;;;;;;;16.91;100.00;101516.41;5241892;28;20490;-71
2023/05/12 08:06:26;;;;;;;8.57;7.57;;;;;;;16.97;100.00;101527.22;5239527;28;20018;-71
2023/05/12 08:08:58;;;;;;;7.50;6.78;;;;;;;16.94;100.00;101516.13;5239743;28;20400;-71
2023/05/12 08:11:29;;;;;;;8.23;7.43;;;;;;;17.27;100.00;101522.41;5242306;28;20021;-71
2023/05/12 08:14:00;;;;;;;7.28;6.68;;;;;;;17.26;100.00;101524.25;5242344;28;20073;-71
2023/05/12 08:16:32;;;;;;;7.18;6.57;;;;;;;17.30;100.00;101523.94;5240314;28;20052;-71
2023/05/12 08:19:03;;;;;;;7.18;6.57;;;;;;;17.01;100.00;101530.41;5246122;28;20032;-71
2023/05/12 08:21:34;;;;;;;7.10;6.50;;;;;;;16.99;100.00;101527.88;5245958;28;20596;-71
2023/05/12 08:24:05;;;;;;;7.43;6.75;;;;;;;17.18;100.00;101524.19;5241489;28;20332;-71
2023/05/12 08:26:37;;;;;;;6.65;6.13;;;;;;;17.16;100.00;101527.97;5242793;28;20494;-71
2023/05/12 08:29:08;;;;;;;7.57;6.88;;;;;;;17.37;100.00;101522.31;5245631;28;20383;-72
2023/05/12 08:31:39;;;;;;;6.95;6.35;;;;;;;17.51;100.00;101535.78;5242759;28;20386;-71
2023/05/12 08:34:11;;;;;;;6.03;5.43;;;;;;;17.62;100.00;101540.00;5247865;28;20098;-71
2023/05/12 08:36:42;;;;;;;6.68;6.10;;;;;;;17.69;100.00;101534.88;5248706;28;20021;-72
2023/05/12 08:39:13;;;;;;;6.22;5.60;;;;;;;17.77;100.00;101537.59;5240344;28;20021;-71
2023/05/12 08:42:01;;;;;;;6.35;5.80;;;;;;;18.03;100.00;101542.78;5240695;28;20112;-72
2023/05/12 08:44:32;;;;;;;5.30;4.80;;;;;;;17.95;100.00;101537.47;5241545;28;20099;-71
2023/05/12 08:47:04;;;;;;;6.18;5.40;;;;;;;18.00;100.00;101540.50;5243040;28;20033;-71
2023/05/12 08:49:38;;;;;;;5.00;4.50;;;;;;;17.92;100.00;101551.06;5243941;28;20041;-71
2023/05/12 08:52:13;;;;;;;5.25;4.40;;;;;;;17.90;100.00;101559.16;5242432;28;20298;-71
2023/05/12 08:54:45;;;;;;;5.68;3.90;;;;;;;17.86;100.00;101557.00;5240849;28;20506;-72
2023/05/12 08:57:16;;;;;;;4.63;4.13;;;;;;;18.09;100.00;101547.47;5242130;28;20197;-72
2023/05/12 08:59:48;;;;;;;4.18;3.78;;;;;;;18.26;100.00;101553.63;5238942;28;20039;-71
2023/05/12 09:02:22;;;;;;;4.20;3.80;;;;;;;18.43;100.00;101557.97;5242938;28;20062;-72
2023/05/12 09:04:53;;;;;;;4.30;3.67;;;;;;;18.43;100.00;101555.31;5219227;28;20026;-72
2023/05/12 09:07:26;;;;;;;4.68;3.80;;;;;;;18.49;100.00;101559.16;5248889;28;20017;-72
2023/05/12 09:09:59;;;;;;;4.20;3.70;;;;;;;18.46;100.00;101559.47;5247890;28;20017;-72
2023/05/12 09:12:33;;;;;;;4.75;3.67;;;;;;;18.57;100.00;101568.94;5239311;28;20080;-72
2023/05/12 09:15:07;;;;;;;4.85;3.25;;;;;;;18.60;100.00;101564.13;5243155;28;20051;-72
2023/05/12 09:17:38;;;;;;;5.43;2.95;;;;;;;18.50;100.00;101562.63;5244523;28;20490;-72
2023/05/12 09:20:11;;;;;;;5.38;2.95;;;;;;;18.46;100.00;101557.63;5243758;28;20041;-72
2023/05/12 09:22:42;;;;;;;4.05;2.70;;;;;;;18.58;100.00;101562.63;5247586;28;20072;-72
2023/05/12 09:25:18;;;;;;;3.58;2.67;;;;;;;18.82;100.00;101557.34;5249831;28;20029;-71
2023/05/12 09:27:53;;;;;;;3.80;2.80;;;;;;;18.65;100.00;101567.09;5243332;28;20111;-72
2023/05/12 09:30:34;;;;;;;3.58;2.75;;;;;;;18.84;100.00;101560.66;5237723;28;20116;-72
2023/05/12 09:33:12;;;;;;;4.03;2.90;;;;;;;18.72;100.00;101572.63;5241561;28;20035;-72
2023/05/12 09:35:44;;;;;;;3.50;2.55;;;;;;;18.81;100.00;101571.63;5218427;28;20017;-72
2023/05/12 09:38:16;;;;;;;3.83;2.70;;;;;;;19.07;100.00;101576.75;5248507;28;20107;-71
2023/05/12 09:40:47;;;;;;;5.32;2.65;;;;;;;19.05;100.00;101565.44;5242200;28;20065;-72
2023/05/12 09:43:19;;;;;;;3.83;2.70;;;;;;;19.36;100.00;101568.22;5241367;28;20073;-72
2023/05/12 09:45:50;;;;;;;5.60;2.55;;;;;;;19.31;100.00;101564.41;5237121;28;20128;-72
2023/05/12 09:48:21;;;;;;;3.20;2.50;;;;;;;19.25;100.00;101568.59;5238824;28;20079;-72
2023/05/12 09:50:52;;;;;;;3.30;2.60;;;;;;;19.41;100.00;101573.03;5235381;28;20038;-72
2023/05/12 09:53:24;;;;;;;2.90;2.60;;;;;;;19.47;100.00;101574.97;5224361;28;20076;-72
2023/05/12 09:55:55;;;;;;;2.77;2.33;;;;;;;19.54;100.00;101575.97;5240085;28;20037;-72
2023/05/12 09:58:27;;;;;;;5.80;1.98;;;;;;;19.64;100.00;101566.00;5241164;28;20028;-72
2023/05/12 10:00:58;;;;;;;3.38;2.22;;;;;;;19.75;100.00;101571.94;5236583;28;20033;-72
2023/05/12 10:03:32;;;;;;;3.60;2.30;;;;;;;19.79;100.00;101583.91;5241733;28;20076;-72
2023/05/12 10:06:06;;;;;;;3.25;1.88;;;;;;;19.76;100.00;101576.25;5242673;28;20130;-72
2023/05/12 10:09:03;;;;;;;2.97;2.00;;;;;;;20.00;100.00;101568.19;5235390;28;20061;-71
2023/05/12 10:11:35;;;;;;;2.53;1.92;;;;;;;19.75;100.00;101587.91;5221747;28;20052;-72
2023/05/12 10:14:08;;;;;;;3.00;1.80;;;;;;;19.96;100.00;101577.47;5248013;28;21122;-72
2023/05/12 10:16:40;;;;;;;;;;;;;;;20.68;100.00;101589.72;5244373;28;20473;-72
2023/05/12 10:19:12;;;;;;;3.83;2.17;;;;;;;20.16;100.00;101584.03;5245830;28;19956;-72
2023/05/12 10:21:45;;;;;;;4.05;1.92;;;;;;;20.27;100.00;101589.97;5242781;28;20021;-72
2023/05/12 10:24:17;;;;;;;6.47;2.75;;;;;;;20.08;100.00;101581.44;5244649;28;20095;-72
2023/05/12 10:26:49;;;;;;;4.63;2.33;;;;;;;20.14;100.00;101588.69;5244282;28;20589;-72
2023/05/12 10:29:28;;;;;;;5.17;2.47;;;;;;;20.07;100.00;101581.59;5245827;28;20406;-72
2023/05/12 10:32:02;;;;;;;3.55;2.10;;;;;;;20.35;100.00;101585.44;5244946;28;20082;-72
2023/05/12 10:34:36;;;;;;;3.00;1.92;;;;;;;20.34;100.00;101583.78;5246025;28;20026;-72
2023/05/12 10:37:12;;;;;;;3.72;2.00;;;;;;;20.46;100.00;101575.38;5240634;28;20025;-72
2023/05/12 10:39:48;;;;;;;3.85;2.22;;;;;;;20.66;100.00;101581.91;5248030;28;20039;-72
2023/05/12 10:42:24;;;;;;;2.90;1.88;;;;;;;20.62;100.00;101577.94;5243738;28;20429;-72
2023/05/12 10:44:55;;;;;;;2.60;2.15;;;;;;;21.00;100.00;101583.28;5244416;28;20032;-72
2023/05/12 10:47:36;;;;;;;4.30;1.80;;;;;;;21.34;100.00;101580.97;5237286;28;20482;-72
2023/05/12 10:50:08;;;;;;;2.75;2.17;;;;;;;21.37;100.00;101575.28;5242043;28;20423;-72
2023/05/12 10:52:40;;;;;;;4.17;2.17;;;;;;;21.35;100.00;101581.81;5240176;28;20124;-72
2023/05/12 10:55:13;;;;;;;3.65;1.85;;;;;;;21.28;100.00;101586.16;5242142;28;20087;-72
2023/05/12 10:57:50;;;;;;;4.25;1.60;;;;;;;21.32;100.00;101588.28;5244094;28;20475;-72
2023/05/12 11:00:25;;;;;;;3.17;1.77;;;;;;;21.07;100.00;101603.69;5239511;28;20029;-72
2023/05/12 11:02:56;;;;;;;7.00;1.80;;;;;;;20.95;100.00;101597.16;5244374;28;20068;-73
2023/05/12 11:05:33;;;;;;;3.10;1.80;;;;;;;21.46;100.00;101591.19;5244133;28;20057;-72
2023/05/12 11:08:04;;;;;;;5.00;1.67;;;;;;;21.27;100.00;101584.53;5225281;28;20505;-72
2023/05/12 11:10:36;;;;;;;3.37;1.80;;;;;;;21.39;100.00;101591.09;5245524;28;20032;-73
2023/05/12 11:13:07;;;;;;;2.90;1.53;;;;;;;21.23;100.00;101599.22;5241733;28;20029;-72
2023/05/12 11:15:42;;;;;;;3.73;2.00;;;;;;;21.20;100.00;101604.91;5244723;28;20086;-71
2023/05/12 11:18:19;;;;;;;4.05;1.95;;;;;;;20.98;100.00;101618.09;5244684;28;20037;-72
2023/05/12 11:20:50;;;;;;;4.47;2.20;;;;;;;20.88;100.00;101606.88;5244889;28;20043;-74
2023/05/12 11:23:24;;;;;;;3.83;2.60;;;;;;;21.18;100.00;101609.63;5242019;28;20032;-71
2023/05/12 11:25:55;;;;;;;4.15;1.83;;;;;;;21.25;100.00;101613.19;5246716;28;20041;-72
2023/05/12 11:28:27;;;;;;;2.70;2.20;;;;;;;21.03;100.00;101612.25;5239236;28;20036;-72
2023/05/12 11:30:58;;;;;;;5.57;2.93;;;;;;;20.90;100.00;101618.97;5241626;28;20483;-72
2023/05/12 11:33:29;;;;;;;4.53;3.33;;;;;;;20.76;100.00;101630.44;5243648;28;20487;-72